Time;durP1;ratioP1;P1;durP2;ratioP2;P2;SDS_P1;SDS_P2;PMS_P1;PMS_P2;Temp;Humidity;BMP_temperature;BMP_pressure;BME280_temperature;BME280_humidity;BME280_pressure;Samples;Min_cycle;Max_cycle;Signal;HPM_P1;HPM_P2
2022/12/19 00:01:21;;;;;;;32.65;20.95;;;1.00;99.90;;;;;;5182112;27;20137;-36
2022/12/19 00:03:58;;;;;;;37.53;21.45;;;1.00;99.90;;;;;;5125534;27;20577;-35
2022/12/19 00:06:25;;;;;;;39.83;22.23;;;1.10;99.90;;;;;;5116733;27;20044;-36
2022/12/19 00:08:52;;;;;;;37.00;22.15;;;1.10;99.90;;;;;;5100660;28;20036;-34
2022/12/19 00:11:21;;;;;;;38.17;23.42;;;1.10;99.90;;;;;;5054909;28;20182;-35
2022/12/19 00:13:47;;;;;;;38.78;20.80;;;1.10;99.90;;;;;;4996825;28;20071;-34
2022/12/19 00:16:23;;;;;;;35.92;21.10;;;1.10;99.90;;;;;;4944259;28;20047;-35
2022/12/19 00:18:50;;;;;;;34.92;21.00;;;1.10;99.90;;;;;;4894748;29;20039;-35
2022/12/19 00:21:19;;;;;;;41.63;22.38;;;1.10;99.90;;;;;;4727271;30;20053;-35
2022/12/19 00:23:52;;;;;;;43.33;30.15;;;1.20;99.90;;;;;;5192827;27;20722;-34
2022/12/19 00:26:38;;;;;;;39.67;23.83;;;1.20;99.90;;;;;;5164240;27;20043;-34
2022/12/19 00:29:06;;;;;;;36.53;22.30;;;1.20;99.90;;;;;;5097739;27;20081;-33
2022/12/19 00:31:34;;;;;;;35.08;21.13;;;1.20;99.90;;;;;;5097307;28;20043;-34
2022/12/19 00:34:00;;;;;;;40.05;23.17;;;1.20;99.90;;;;;;5095801;28;20388;-34
2022/12/19 00:36:32;;;;;;;35.70;22.90;;;1.20;99.90;;;;;;5079275;28;20411;-35
2022/12/19 00:38:59;;;;;;;36.70;22.52;;;1.20;99.90;;;;;;5069121;28;20379;-35
2022/12/19 00:41:30;;;;;;;37.05;22.23;;;1.20;99.90;;;;;;5070600;28;20048;-36
2022/12/19 00:44:10;;;;;;;40.38;23.02;;;1.20;99.90;;;;;;4954349;28;20048;-33
2022/12/19 00:49:08;;;;;;;38.90;21.92;;;1.20;99.90;;;;;;5211978;27;20131;-35
2022/12/19 00:51:36;;;;;;;36.25;20.35;;;1.30;99.90;;;;;;5141015;27;20047;-36
2022/12/19 00:54:02;;;;;;;40.80;23.42;;;1.30;99.90;;;;;;5127723;27;20734;-35
2022/12/19 00:56:31;;;;;;;37.03;22.15;;;1.30;99.90;;;;;;5168010;27;20034;-37
2022/12/19 00:58:57;;;;;;;37.00;22.52;;;1.40;99.90;;;;;;5122723;27;20047;-36
2022/12/19 01:01:25;;;;;;;35.67;20.42;;;1.40;99.90;;;;;;5097029;27;20047;-35
2022/12/19 01:03:51;;;;;;;38.25;22.92;;;1.40;99.90;;;;;;5072771;28;20493;-35
2022/12/19 01:06:17;;;;;;;36.95;22.33;;;1.40;99.90;;;;;;5008701;28;20094;-36
2022/12/19 01:08:43;;;;;;;34.55;21.70;;;1.40;99.90;;;;;;4934817;28;20081;-36
2022/12/19 01:12:44;;;;;;;40.03;22.95;;;1.40;99.90;;;;;;5191471;27;20588;-34
2022/12/19 01:14:07;;;;;;;36.40;22.05;;;1.50;99.90;;;;;;5152461;27;20176;-34
2022/12/19 01:16:33;;;;;;;36.10;21.08;;;1.50;99.90;;;;;;5147383;27;20042;-34
2022/12/19 01:18:59;;;;;;;35.50;20.92;;;1.50;99.90;;;;;;5125648;27;20031;-34
2022/12/19 01:21:25;;;;;;;40.78;22.52;;;1.60;99.90;;;;;;5105361;28;20050;-35
2022/12/19 01:23:51;;;;;;;36.78;21.27;;;1.60;99.90;;;;;;5055853;28;20051;-34
2022/12/19 01:26:17;;;;;;;35.15;21.20;;;1.70;99.90;;;;;;5059377;28;20053;-36
2022/12/19 01:28:43;;;;;;;38.28;22.58;;;1.60;99.90;;;;;;5052866;28;20050;-35
2022/12/19 01:31:09;;;;;;;35.20;22.23;;;1.70;99.90;;;;;;4915622;28;20046;-35
2022/12/19 01:33:42;;;;;;;39.47;22.23;;;1.70;99.90;;;;;;5207544;27;20607;-35
2022/12/19 01:36:08;;;;;;;36.30;22.05;;;1.70;99.90;;;;;;5144607;27;20043;-35
2022/12/19 01:38:35;;;;;;;36.70;22.42;;;1.70;99.90;;;;;;5149505;27;20511;-35
2022/12/19 01:41:01;;;;;;;41.92;24.50;;;1.70;99.90;;;;;;5154637;27;20057;-35
2022/12/19 01:43:30;;;;;;;36.90;22.40;;;1.70;99.90;;;;;;5080598;28;20052;-35
2022/12/19 01:46:11;;;;;;;33.72;21.33;;;1.70;99.90;;;;;;4969455;28;20043;-35
2022/12/19 01:48:41;;;;;;;39.45;22.58;;;1.70;99.90;;;;;;4924704;28;20053;-35
2022/12/19 01:51:20;;;;;;;44.42;25.40;;;1.80;99.90;;;;;;4871971;29;20127;-35
2022/12/19 01:56:43;;;;;;;41.92;22.92;;;1.80;99.90;;;;;;5185071;27;20152;-34
2022/12/19 01:59:36;;;;;;;39.10;22.65;;;1.80;99.90;;;;;;5099569;28;20121;-35
2022/12/19 02:02:16;;;;;;;40.05;23.42;;;1.90;99.90;;;;;;5074925;27;20080;-36
2022/12/19 02:04:46;;;;;;;39.88;22.33;;;1.90;99.90;;;;;;5096723;28;20064;-35
2022/12/19 02:07:14;;;;;;;39.08;23.00;;;1.90;99.90;;;;;;5042679;28;20050;-35
2022/12/19 02:09:40;;;;;;;42.08;23.88;;;1.90;99.90;;;;;;4956794;28;20036;-35
2022/12/19 02:12:06;;;;;;;38.45;20.67;;;1.90;99.90;;;;;;4961816;28;20128;-35
2022/12/19 02:14:33;;;;;;;40.55;23.25;;;1.90;99.90;;;;;;4919439;29;20555;-36
2022/12/19 02:19:53;;;;;;;37.70;23.15;;;2.00;99.90;;;;;;5196650;27;20478;-35
2022/12/19 02:22:39;;;;;;;;;;;2.00;99.90;;;;;;5122091;27;20044;-35
2022/12/19 02:25:29;;;;;;;39.45;21.67;;;2.00;99.90;;;;;;5099763;27;19943;-35
2022/12/19 02:28:33;;;;;;;42.47;24.13;;;2.00;99.90;;;;;;5091029;28;20048;-36
2022/12/19 02:31:23;;;;;;;41.67;24.25;;;2.00;99.90;;;;;;5010215;28;20057;-35
2022/12/19 02:33:48;;;;;;;49.20;26.70;;;2.00;99.90;;;;;;4976018;28;20050;-35
2022/12/19 02:36:19;;;;;;;46.80;25.60;;;1.90;99.90;;;;;;4939619;28;20044;-35
2022/12/19 02:39:25;;;;;;;51.08;27.08;;;1.90;99.90;;;;;;4895384;29;20135;-35
2022/12/19 02:42:05;;;;;;;48.65;25.45;;;1.90;99.90;;;;;;5195515;27;19922;-35
2022/12/19 02:44:41;;;;;;;48.20;25.33;;;1.90;99.90;;;;;;5162373;27;20429;-35
2022/12/19 02:47:08;;;;;;;52.45;29.17;;;1.90;99.90;;;;;;5099793;28;20067;-37
2022/12/19 02:49:36;;;;;;;53.90;29.58;;;1.90;99.90;;;;;;5103517;28;20040;-35
2022/12/19 02:52:12;;;;;;;49.45;23.42;;;1.90;99.90;;;;;;5025871;28;20044;-35
2022/12/19 02:54:38;;;;;;;48.60;26.88;;;1.90;99.90;;;;;;5038561;28;20050;-35
2022/12/19 02:57:16;;;;;;;54.20;28.83;;;1.90;99.90;;;;;;5019460;28;20045;-36
2022/12/19 02:59:50;;;;;;;49.72;25.52;;;1.90;99.90;;;;;;4965057;28;20058;-36
2022/12/19 03:02:19;;;;;;;49.15;27.38;;;1.90;99.90;;;;;;4978088;28;20042;-35
2022/12/19 03:04:58;;;;;;;59.28;31.08;;;1.90;99.90;;;;;;4913981;28;20047;-35
2022/12/19 03:07:58;;;;;;;56.15;29.10;;;1.90;99.90;;;;;;5193350;27;20148;-35
2022/12/19 03:10:34;;;;;;;55.50;29.67;;;1.90;99.90;;;;;;5150287;27;20081;-35
2022/12/19 03:13:09;;;;;;;51.63;28.25;;;2.00;99.90;;;;;;5100417;27;20058;-34
2022/12/19 03:15:36;;;;;;;58.75;30.27;;;1.90;99.90;;;;;;5102182;28;20639;-34
2022/12/19 03:18:02;;;;;;;66.70;32.25;;;2.00;99.90;;;;;;5104396;28;20430;-36
2022/12/19 03:20:41;;;;;;;61.25;30.33;;;2.00;99.90;;;;;;5091857;28;20041;-34
2022/12/19 03:23:07;;;;;;;62.70;30.83;;;2.00;99.90;;;;;;5082941;28;20087;-34
2022/12/19 03:25:34;;;;;;;68.82;33.13;;;2.00;99.90;;;;;;5066544;28;20153;-35
2022/12/19 03:28:05;;;;;;;65.63;31.35;;;2.10;99.90;;;;;;5036540;28;20040;-35
2022/12/19 03:30:45;;;;;;;63.95;33.45;;;2.10;99.90;;;;;;5184400;27;20133;-37
2022/12/19 03:33:15;;;;;;;62.95;31.33;;;2.20;99.90;;;;;;5161535;27;20047;-35
2022/12/19 03:35:43;;;;;;;63.83;32.33;;;2.20;99.90;;;;;;5133768;27;20050;-34
2022/12/19 03:38:11;;;;;;;63.35;31.80;;;2.30;99.90;;;;;;5117132;27;20354;-35
2022/12/19 03:40:38;;;;;;;69.63;33.28;;;2.30;99.90;;;;;;5047506;28;20049;-35
2022/12/19 03:43:09;;;;;;;65.75;32.72;;;2.40;99.90;;;;;;4994547;28;20102;-36
2022/12/19 03:45:44;;;;;;;60.97;32.35;;;2.40;99.90;;;;;;4952601;28;20039;-35
2022/12/19 03:48:20;;;;;;;62.47;30.20;;;2.40;99.90;;;;;;4929883;29;20052;-36
2022/12/19 03:51:11;;;;;;;66.00;34.65;;;2.50;99.90;;;;;;4808399;29;20051;-35
2022/12/19 03:53:51;;;;;;;65.43;33.05;;;2.50;99.90;;;;;;4722554;30;20044;-35
2022/12/19 03:56:37;;;;;;;62.35;31.80;;;2.60;99.90;;;;;;5204145;27;20475;-35
2022/12/19 03:59:14;;;;;;;64.28;33.95;;;2.60;99.90;;;;;;5137718;27;20040;-35
2022/12/19 04:01:41;;;;;;;61.45;32.88;;;2.60;99.90;;;;;;5153547;27;20042;-35
2022/12/19 04:04:10;;;;;;;62.15;33.28;;;2.70;99.90;;;;;;5125817;27;20035;-36
2022/12/19 04:06:37;;;;;;;64.93;33.35;;;2.70;99.90;;;;;;5067449;28;20041;-36
2022/12/19 04:09:03;;;;;;;62.65;32.63;;;2.70;99.90;;;;;;5017791;28;20396;-36
2022/12/19 04:11:37;;;;;;;64.60;30.35;;;2.70;99.90;;;;;;4985094;28;20484;-36
2022/12/19 04:14:13;;;;;;;62.65;33.75;;;2.80;99.90;;;;;;4927165;28;20509;-37
2022/12/19 04:16:53;;;;;;;69.30;34.15;;;2.80;99.90;;;;;;4932682;28;20060;-35
2022/12/19 04:19:28;;;;;;;63.90;33.65;;;2.80;99.90;;;;;;4874968;29;20045;-36
2022/12/19 04:22:16;;;;;;;63.80;32.83;;;2.80;99.90;;;;;;5201290;27;20121;-36
2022/12/19 04:24:44;;;;;;;62.30;32.47;;;2.80;99.90;;;;;;5141438;27;20484;-35
2022/12/19 04:27:12;;;;;;;63.08;32.03;;;2.80;99.90;;;;;;5109768;27;20549;-37
2022/12/19 04:29:38;;;;;;;66.40;33.28;;;2.90;99.90;;;;;;5124183;27;20047;-36
2022/12/19 04:32:07;;;;;;;57.92;28.80;;;2.90;99.90;;;;;;5089198;28;20387;-35
2022/12/19 04:34:33;;;;;;;61.13;32.05;;;2.90;99.90;;;;;;5058057;28;20049;-36
2022/12/19 04:37:02;;;;;;;51.78;27.50;;;2.90;99.90;;;;;;5073439;28;20048;-35
2022/12/19 04:39:28;;;;;;;59.05;31.13;;;3.00;99.90;;;;;;5052699;28;20036;-36
2022/12/19 04:41:54;;;;;;;60.75;32.38;;;3.00;99.90;;;;;;5040428;28;20050;-36
2022/12/19 04:44:20;;;;;;;57.50;30.27;;;3.00;99.90;;;;;;4924293;28;20039;-36
2022/12/19 04:46:57;;;;;;;55.38;30.83;;;3.00;99.90;;;;;;5200086;27;20132;-36
2022/12/19 04:49:23;;;;;;;56.75;30.38;;;3.10;99.90;;;;;;5127441;27;20412;-35
2022/12/19 04:51:48;;;;;;;61.38;31.75;;;3.10;99.90;;;;;;5152017;27;20043;-34
2022/12/19 04:54:14;;;;;;;59.25;31.73;;;3.10;99.90;;;;;;5119341;27;20568;-35
2022/12/19 04:56:40;;;;;;;55.45;31.38;;;3.10;99.90;;;;;;5118362;28;20032;-36
2022/12/19 04:59:05;;;;;;;60.35;31.13;;;3.10;99.90;;;;;;5083673;28;20693;-35
2022/12/19 05:01:31;;;;;;;48.83;25.98;;;3.10;99.90;;;;;;5076204;28;20044;-36
2022/12/19 05:03:57;;;;;;;60.90;31.98;;;3.20;99.90;;;;;;5028128;28;20049;-35
2022/12/19 05:06:23;;;;;;;61.85;31.95;;;3.20;99.90;;;;;;5002903;28;20052;-35
2022/12/19 05:11:26;;;;;;;60.10;32.80;;;3.30;99.90;;;;;;5187856;27;20129;-36
2022/12/19 05:13:52;;;;;;;58.72;31.95;;;3.30;99.90;;;;;;5140805;27;20387;-35
2022/12/19 05:16:18;;;;;;;65.82;33.75;;;3.30;99.90;;;;;;5135884;27;20399;-36
2022/12/19 05:18:44;;;;;;;70.93;38.70;;;3.40;99.90;;;;;;5117783;27;20036;-37
2022/12/19 05:21:10;;;;;;;63.70;31.88;;;3.40;99.90;;;;;;5111410;27;20044;-35
2022/12/19 05:23:36;;;;;;;71.07;35.13;;;3.40;99.90;;;;;;5079028;28;20383;-36
2022/12/19 05:26:04;;;;;;;67.57;36.15;;;3.40;99.90;;;;;;5061736;28;20124;-35
2022/12/19 05:28:31;;;;;;;66.32;33.97;;;3.40;99.90;;;;;;5034273;28;20042;-35
2022/12/19 05:31:10;;;;;;;65.53;34.80;;;3.50;99.90;;;;;;5025192;28;20049;-36
2022/12/19 05:36:34;;;;;;;72.78;34.80;;;3.60;99.90;;;;;;5191581;27;20137;-33
2022/12/19 05:39:00;;;;;;;72.65;39.65;;;3.60;99.90;;;;;;5150290;27;20379;-35
2022/12/19 05:41:26;;;;;;;64.78;34.70;;;3.60;99.90;;;;;;5113553;27;20050;-37
2022/12/19 05:43:53;;;;;;;66.43;33.10;;;3.60;99.90;;;;;;5081853;28;20117;-36
2022/12/19 05:46:20;;;;;;;62.13;34.42;;;3.70;99.90;;;;;;5026549;28;20104;-35
2022/12/19 05:48:47;;;;;;;61.95;32.85;;;3.70;99.90;;;;;;5073820;28;20037;-35
2022/12/19 05:51:13;;;;;;;62.80;34.83;;;3.70;99.90;;;;;;5083854;28;20073;-35
2022/12/19 05:53:40;;;;;;;61.72;31.33;;;3.70;99.90;;;;;;5058991;28;20045;-38
2022/12/19 05:56:11;;;;;;;60.55;32.03;;;3.80;99.90;;;;;;5015174;28;20046;-36
2022/12/19 05:58:38;;;;;;;57.58;30.08;;;3.80;99.90;;;;;;4961490;28;20094;-36
2022/12/19 06:01:22;;;;;;;55.42;28.05;;;3.80;99.90;;;;;;5164707;27;20142;-36
2022/12/19 06:03:48;;;;;;;60.38;31.33;;;3.90;99.90;;;;;;5114464;27;20134;-36
2022/12/19 06:06:19;;;;;;;54.10;28.42;;;3.90;99.90;;;;;;5098237;28;20115;-36
2022/12/19 06:08:45;;;;;;;49.97;30.02;;;3.90;99.90;;;;;;5097708;28;20039;-36
2022/12/19 06:11:12;;;;;;;61.58;29.38;;;3.90;99.90;;;;;;5074077;28;20120;-36
2022/12/19 06:13:39;;;;;;;61.65;31.65;;;3.90;99.90;;;;;;5013882;28;20097;-37
2022/12/19 06:16:07;;;;;;;62.00;32.33;;;4.00;99.90;;;;;;5021733;28;20044;-37
2022/12/19 06:18:33;;;;;;;57.03;30.33;;;4.00;99.90;;;;;;4967054;28;20567;-36
2022/12/19 06:21:11;;;;;;;56.22;32.67;;;4.00;99.90;;;;;;4979072;28;20114;-36
2022/12/19 06:23:38;;;;;;;63.03;33.33;;;4.00;99.90;;;;;;4819600;29;20041;-36
2022/12/19 06:26:13;;;;;;;53.75;31.23;;;4.10;99.90;;;;;;5174678;27;20391;-36
2022/12/19 06:28:39;;;;;;;58.22;30.58;;;4.10;99.90;;;;;;5146201;27;20518;-37
2022/12/19 06:31:06;;;;;;;58.28;31.17;;;4.10;99.90;;;;;;5109422;27;20055;-38
2022/12/19 06:33:32;;;;;;;52.03;28.40;;;4.10;99.90;;;;;;5127282;27;20115;-36
2022/12/19 06:36:00;;;;;;;40.80;22.95;;;4.10;99.90;;;;;;5081358;28;20033;-37
2022/12/19 06:38:27;;;;;;;52.15;29.35;;;4.10;99.90;;;;;;4972120;28;20121;-37
2022/12/19 06:43:37;;;;;;;;;;;4.20;99.90;;;;;;4905388;29;20060;-37
2022/12/19 06:46:03;;;;;;;43.10;26.23;;;4.20;99.90;;;;;;4848976;29;20401;-37
2022/12/19 06:48:29;;;;;;;44.58;22.90;;;4.20;99.90;;;;;;4807024;29;20098;-38
2022/12/19 06:51:02;;;;;;;43.08;23.02;;;4.20;99.90;;;;;;5165846;27;20593;-36
2022/12/19 06:53:28;;;;;;;56.65;29.13;;;4.20;99.90;;;;;;5135635;27;20126;-36
2022/12/19 06:55:56;;;;;;;45.30;26.50;;;4.30;99.90;;;;;;5114386;28;20138;-35
2022/12/19 06:58:22;;;;;;;51.95;27.88;;;4.30;99.90;;;;;;5079982;28;20172;-37
2022/12/19 07:00:48;;;;;;;50.83;27.08;;;4.30;99.90;;;;;;5009551;28;20045;-36
2022/12/19 07:03:19;;;;;;;51.25;29.02;;;4.30;99.90;;;;;;5002106;28;20128;-36
2022/12/19 07:05:45;;;;;;;52.75;28.95;;;4.30;99.90;;;;;;4977918;28;20097;-37
2022/12/19 07:08:11;;;;;;;58.88;30.85;;;4.30;99.90;;;;;;4967672;28;20134;-37
2022/12/19 07:10:37;;;;;;;56.75;30.23;;;4.30;99.90;;;;;;4964702;28;20170;-38
2022/12/19 07:13:03;;;;;;;54.08;28.88;;;4.30;99.90;;;;;;4948521;28;20393;-37
2022/12/19 07:15:41;;;;;;;55.83;29.23;;;4.30;99.90;;;;;;5193558;27;20124;-37
2022/12/19 07:18:09;;;;;;;51.92;29.17;;;4.40;99.90;;;;;;5169935;27;20038;-36
2022/12/19 07:20:36;;;;;;;61.00;32.35;;;4.30;99.90;;;;;;5141460;27;20484;-36
2022/12/19 07:23:04;;;;;;;52.03;27.27;;;4.40;99.90;;;;;;5157558;27;20320;-37
2022/12/19 07:25:30;;;;;;;50.20;26.92;;;4.40;99.90;;;;;;5138045;27;20040;-37
2022/12/19 07:27:56;;;;;;;50.25;27.73;;;4.40;99.90;;;;;;5101108;28;20055;-38
2022/12/19 07:30:22;;;;;;;50.45;27.85;;;4.40;99.90;;;;;;5088503;28;20040;-37
2022/12/19 07:32:48;;;;;;;56.25;30.00;;;4.40;99.90;;;;;;5049906;28;20076;-37
2022/12/19 07:35:13;;;;;;;47.38;24.13;;;4.40;99.90;;;;;;4987264;28;20386;-38
2022/12/19 07:37:39;;;;;;;54.22;28.35;;;4.40;99.90;;;;;;4875255;29;20048;-37
2022/12/19 07:40:17;;;;;;;53.78;30.08;;;4.50;99.90;;;;;;5193782;27;20132;-37
2022/12/19 07:42:43;;;;;;;48.67;26.98;;;4.50;99.90;;;;;;5149469;27;20569;-37
2022/12/19 07:45:10;;;;;;;44.47;24.38;;;4.60;99.90;;;;;;5161367;27;20046;-37
2022/12/19 07:47:35;;;;;;;49.30;28.77;;;4.60;99.90;;;;;;5160051;27;20045;-37
2022/12/19 07:50:01;;;;;;;53.10;28.13;;;4.60;99.90;;;;;;5109066;27;20045;-37
2022/12/19 07:52:27;;;;;;;45.42;26.23;;;4.60;99.90;;;;;;5052133;28;20053;-37
2022/12/19 07:54:53;;;;;;;48.30;28.02;;;4.60;99.90;;;;;;5017556;28;20050;-37
2022/12/19 07:57:19;;;;;;;51.50;25.77;;;4.60;99.90;;;;;;4979255;28;20038;-38
2022/12/19 08:02:17;;;;;;;48.35;26.55;;;4.70;99.90;;;;;;5200409;27;20588;-38
2022/12/19 08:04:43;;;;;;;48.10;28.23;;;4.70;99.90;;;;;;5150588;27;20042;-38
2022/12/19 08:07:08;;;;;;;52.67;28.83;;;4.80;99.90;;;;;;5148835;27;20441;-37
2022/12/19 08:09:34;;;;;;;48.80;26.08;;;4.70;99.90;;;;;;5138047;27;20048;-37
2022/12/19 08:12:00;;;;;;;47.60;27.15;;;4.80;99.90;;;;;;5066198;28;20037;-37
2022/12/19 08:14:25;;;;;;;49.08;27.13;;;4.90;99.90;;;;;;5046320;28;21393;-36
2022/12/19 08:16:51;;;;;;;41.58;25.02;;;4.90;99.90;;;;;;5064918;28;20101;-38
2022/12/19 08:19:17;;;;;;;42.10;23.27;;;4.90;99.90;;;;;;4976011;28;20042;-37
2022/12/19 08:21:43;;;;;;;41.45;24.27;;;5.00;99.90;;;;;;4899243;28;20415;-37
2022/12/19 08:26:46;;;;;;;39.85;23.35;;;5.00;99.90;;;;;;5204213;27;20592;-38
2022/12/19 08:29:12;;;;;;;41.22;23.63;;;5.00;99.90;;;;;;5156510;27;20043;-37
2022/12/19 08:31:38;;;;;;;40.42;24.10;;;5.10;99.90;;;;;;5118175;27;20042;-37
2022/12/19 08:34:04;;;;;;;44.65;24.10;;;5.10;99.90;;;;;;5107687;27;20621;-37
2022/12/19 08:36:29;;;;;;;46.30;25.58;;;5.10;99.90;;;;;;5059786;28;20048;-38
2022/12/19 08:38:55;;;;;;;46.22;24.95;;;5.20;99.90;;;;;;4997767;28;20138;-37
2022/12/19 08:41:22;;;;;;;48.22;25.67;;;5.20;99.90;;;;;;4945846;28;20036;-38
2022/12/19 08:43:52;;;;;;;43.33;23.95;;;5.20;99.90;;;;;;4848340;29;20059;-37
2022/12/19 08:46:26;;;;;;;43.22;26.20;;;5.30;99.90;;;;;;5195637;27;20588;-37
2022/12/19 08:48:52;;;;;;;47.97;27.27;;;5.30;99.90;;;;;;5132265;27;20468;-38
2022/12/19 08:51:18;;;;;;;45.08;24.42;;;5.40;99.90;;;;;;5089329;28;20115;-38
2022/12/19 08:53:45;;;;;;;44.38;26.13;;;5.40;99.90;;;;;;5091165;28;20036;-38
2022/12/19 08:56:21;;;;;;;42.97;25.48;;;5.50;99.90;;;;;;5081950;27;20044;-37
2022/12/19 08:58:47;;;;;;;46.53;24.42;;;5.50;99.90;;;;;;5042353;28;20035;-37
2022/12/19 09:01:17;;;;;;;45.47;24.95;;;5.60;99.90;;;;;;4997323;28;20046;-37
2022/12/19 09:03:44;;;;;;;45.28;26.90;;;5.60;99.90;;;;;;4869378;29;20041;-38
2022/12/19 09:06:11;;;;;;;44.85;26.08;;;5.60;99.90;;;;;;4706564;30;20045;-38
2022/12/19 09:08:48;;;;;;;49.70;27.30;;;5.60;99.90;;;;;;5198996;27;20132;-38
2022/12/19 09:11:17;;;;;;;51.15;27.75;;;5.70;99.90;;;;;;5175352;27;20390;-38
2022/12/19 09:13:43;;;;;;;48.70;27.50;;;5.70;99.90;;;;;;5146628;27;20051;-37
2022/12/19 09:16:12;;;;;;;49.22;29.38;;;5.80;99.90;;;;;;5064261;28;20487;-36
2022/12/19 09:18:39;;;;;;;47.40;27.20;;;5.80;99.90;;;;;;5039883;28;20037;-37
2022/12/19 09:21:06;;;;;;;46.88;26.42;;;5.90;99.90;;;;;;5029342;28;20446;-39
2022/12/19 09:23:33;;;;;;;44.13;26.02;;;5.90;99.90;;;;;;4958023;28;20524;-37
2022/12/19 09:26:11;;;;;;;49.10;27.02;;;6.00;99.90;;;;;;4882203;29;20053;-38
2022/12/19 09:31:03;;;;;;;40.55;25.10;;;6.00;99.90;;;;;;5180592;27;20354;-38
2022/12/19 09:33:31;;;;;;;41.35;25.67;;;6.00;99.90;;;;;;5139888;27;20073;-38
2022/12/19 09:35:57;;;;;;;43.85;26.52;;;6.10;99.90;;;;;;5130013;27;20049;-38
2022/12/19 09:38:25;;;;;;;43.78;25.27;;;6.10;99.90;;;;;;5094608;27;20043;-39
2022/12/19 09:40:59;;;;;;;41.88;24.50;;;6.20;99.90;;;;;;5096405;28;20079;-38
2022/12/19 09:44:03;;;;;;;43.40;25.25;;;6.20;99.90;;;;;;5049477;28;20046;-39
2022/12/19 09:46:51;;;;;;;43.05;25.13;;;6.20;99.90;;;;;;4895194;29;20067;-38
2022/12/19 09:52:02;;;;;;;40.20;25.27;;;6.20;99.90;;;;;;5196735;27;20132;-39
2022/12/19 09:54:36;;;;;;;40.75;25.60;;;6.30;99.90;;;;;;5130893;27;20456;-39
2022/12/19 09:57:22;;;;;;;42.63;24.13;;;6.30;99.90;;;;;;5120175;27;20043;-39
2022/12/19 10:00:05;;;;;;;39.35;23.35;;;6.30;99.90;;;;;;5094753;28;20056;-39
2022/12/19 10:02:41;;;;;;;36.00;24.20;;;6.40;99.90;;;;;;5042809;28;20046;-39
2022/12/19 10:05:47;;;;;;;37.75;23.60;;;6.30;99.90;;;;;;4970054;28;20115;-38
2022/12/19 10:08:32;;;;;;;32.33;19.73;;;6.40;99.90;;;;;;4701890;30;20078;-38
2022/12/19 10:11:16;;;;;;;42.08;29.25;;;6.40;99.90;;;;;;5166641;27;20397;-38
2022/12/19 10:14:12;;;;;;;35.10;22.33;;;6.50;99.90;;;;;;5139306;27;20042;-38
2022/12/19 10:16:55;;;;;;;34.92;22.02;;;6.50;99.90;;;;;;5033392;28;20048;-39
2022/12/19 10:19:51;;;;;;;30.40;20.53;;;6.50;99.90;;;;;;5041764;28;20116;-39
2022/12/19 10:22:48;;;;;;;28.05;18.58;;;6.60;99.90;;;;;;5006489;28;20046;-40
2022/12/19 10:25:51;;;;;;;28.85;20.00;;;6.60;99.90;;;;;;4883487;29;20067;-39
2022/12/19 10:28:36;;;;;;;33.03;20.55;;;6.60;99.90;;;;;;4695934;30;20060;-39
2022/12/19 10:31:47;;;;;;;27.95;19.73;;;6.60;99.90;;;;;;5148978;27;20150;-38
2022/12/19 10:34:35;;;;;;;31.70;22.67;;;6.60;99.90;;;;;;5083561;28;20447;-39
2022/12/19 10:37:12;;;;;;;34.70;22.77;;;6.70;99.90;;;;;;5035031;28;20042;-38
2022/12/19 10:39:54;;;;;;;31.95;20.70;;;6.70;99.90;;;;;;5017424;28;20499;-39
2022/12/19 10:42:50;;;;;;;29.55;20.35;;;6.70;99.90;;;;;;5006694;28;20049;-38
2022/12/19 10:45:21;;;;;;;29.17;20.33;;;6.70;99.90;;;;;;4995574;28;20042;-39
2022/12/19 10:48:10;;;;;;;24.95;15.68;;;6.80;99.90;;;;;;4951847;28;20047;-39
2022/12/19 10:50:45;;;;;;;27.23;19.42;;;6.80;99.90;;;;;;5182538;27;20140;-38
2022/12/19 10:53:12;;;;;;;25.55;17.83;;;6.80;99.90;;;;;;5137857;27;20054;-38
2022/12/19 10:55:45;;;;;;;29.20;19.35;;;6.90;99.90;;;;;;5135570;27;20051;-38
2022/12/19 10:58:25;;;;;;;24.55;17.88;;;6.80;99.90;;;;;;5118803;27;20040;-38
2022/12/19 11:01:04;;;;;;;28.40;20.27;;;6.90;99.90;;;;;;5068313;28;20045;-41
2022/12/19 11:03:33;;;;;;;25.45;18.77;;;6.90;99.90;;;;;;4965768;28;20047;-39
2022/12/19 11:06:01;;;;;;;24.52;17.88;;;6.90;99.90;;;;;;4796233;29;20045;-40
2022/12/19 11:08:41;;;;;;;27.08;18.00;;;6.90;99.90;;;;;;5182086;27;20117;-39
2022/12/19 11:11:08;;;;;;;26.58;18.55;;;6.90;99.90;;;;;;5140751;27;20039;-39
2022/12/19 11:13:34;;;;;;;25.05;16.98;;;6.90;99.90;;;;;;5131785;27;20046;-38
2022/12/19 11:16:05;;;;;;;28.08;18.38;;;7.00;99.90;;;;;;5116803;27;20040;-38
2022/12/19 11:18:36;;;;;;;26.48;17.83;;;7.00;99.90;;;;;;5075278;28;20079;-38
2022/12/19 11:21:41;;;;;;;24.85;18.27;;;7.00;99.90;;;;;;5001078;28;20084;-38
2022/12/19 11:24:17;;;;;;;30.00;19.67;;;7.00;99.90;;;;;;4888999;29;20067;-38
2022/12/19 11:29:23;;;;;;;28.75;18.85;;;7.00;99.90;;;;;;5197839;27;20462;-38
2022/12/19 11:31:58;;;;;;;31.45;18.90;;;7.00;99.90;;;;;;5149740;27;20501;-40
2022/12/19 11:34:29;;;;;;;24.23;15.77;;;7.00;99.90;;;;;;5110300;27;20184;-38
2022/12/19 11:37:21;;;;;;;23.92;18.17;;;7.10;99.90;;;;;;5088946;28;20450;-39
2022/12/19 11:40:51;;;;;;;29.45;17.95;;;7.10;99.90;;;;;;4917629;28;20136;-38
2022/12/19 11:43:29;;;;;;;25.63;17.38;;;7.10;99.90;;;;;;4782409;29;20504;-38
2022/12/19 11:46:16;;;;;;;25.42;18.55;;;7.10;99.90;;;;;;4625470;30;20083;-39
2022/12/19 11:49:23;;;;;;;25.85;17.38;;;7.10;99.90;;;;;;5202331;27;20134;-39
2022/12/19 11:51:53;;;;;;;24.48;16.67;;;7.20;99.90;;;;;;5137716;27;20051;-37
2022/12/19 11:54:26;;;;;;;25.85;18.73;;;7.20;99.90;;;;;;5073466;28;20102;-38
2022/12/19 11:56:52;;;;;;;24.43;17.03;;;7.20;99.90;;;;;;5046443;28;20072;-38
2022/12/19 11:59:28;;;;;;;28.60;19.92;;;7.20;99.90;;;;;;5043249;28;20488;-40
2022/12/19 12:02:23;;;;;;;23.35;16.60;;;7.20;99.90;;;;;;4954928;28;20043;-37
2022/12/19 12:05:08;;;;;;;26.17;17.60;;;7.30;99.90;;;;;;4730074;29;20061;-37
2022/12/19 12:09:44;;;;;;;26.88;18.67;;;7.30;99.90;;;;;;5184643;27;20128;-37
2022/12/19 12:12:17;;;;;;;23.63;17.52;;;7.30;99.90;;;;;;5095899;28;20161;-38
2022/12/19 12:15:09;;;;;;;20.98;15.57;;;7.30;99.90;;;;;;5126304;27;20047;-38
2022/12/19 12:18:00;;;;;;;24.45;16.83;;;7.30;99.90;;;;;;5046469;28;20056;-37
2022/12/19 12:20:56;;;;;;;21.52;16.05;;;7.40;99.90;;;;;;4977153;28;20111;-38
2022/12/19 12:24:00;;;;;;;23.02;16.83;;;7.40;99.90;;;;;;4893102;29;20048;-37
2022/12/19 12:29:24;;;;;;;22.08;16.95;;;7.40;99.90;;;;;;5196956;27;20144;-39
2022/12/19 12:32:14;;;;;;;32.97;22.38;;;7.50;99.90;;;;;;5134202;27;20044;-38
2022/12/19 12:34:43;;;;;;;27.85;16.15;;;7.60;99.90;;;;;;5109780;28;20048;-38
2022/12/19 12:37:18;;;;;;;21.48;16.45;;;7.60;99.90;;;;;;5090754;28;20039;-38
2022/12/19 12:40:20;;;;;;;18.23;13.80;;;7.60;99.90;;;;;;5012730;28;20138;-39
2022/12/19 12:43:14;;;;;;;19.15;15.55;;;7.60;99.90;;;;;;4880931;28;20052;-37
2022/12/19 12:45:43;;;;;;;21.70;15.23;;;7.60;99.90;;;;;;4846159;29;20133;-37
2022/12/19 12:49:44;;;;;;;17.52;14.23;;;7.50;99.90;;;;;;5205905;27;20601;-37
2022/12/19 12:52:21;;;;;;;20.38;15.27;;;7.70;99.90;;;;;;5166945;27;20171;-36
2022/12/19 12:54:49;;;;;;;19.63;14.98;;;7.60;99.90;;;;;;5144055;27;20189;-37
2022/12/19 12:57:37;;;;;;;19.80;15.60;;;7.70;99.90;;;;;;5147215;27;20053;-36
2022/12/19 13:00:21;;;;;;;19.25;14.90;;;7.70;99.90;;;;;;5105292;28;20063;-37
2022/12/19 13:03:06;;;;;;;18.45;14.52;;;7.70;99.90;;;;;;5069460;28;20048;-37
2022/12/19 13:06:14;;;;;;;20.98;15.60;;;7.70;99.90;;;;;;5041269;28;20042;-38
2022/12/19 13:09:01;;;;;;;18.75;15.40;;;7.70;99.90;;;;;;5213670;27;20151;-37
2022/12/19 13:14:33;;;;;;;19.05;14.88;;;7.70;99.90;;;;;;5172237;27;20604;-38
2022/12/19 13:17:04;;;;;;;20.10;15.52;;;7.80;99.90;;;;;;5149618;27;20499;-38
2022/12/19 13:20:16;;;;;;;19.40;15.13;;;7.80;99.90;;;;;;5167381;27;20034;-37
2022/12/19 13:22:45;;;;;;;19.42;14.57;;;7.80;99.90;;;;;;4999873;28;20103;-37
2022/12/19 13:25:46;;;;;;;15.35;13.32;;;7.80;99.90;;;;;;4964753;28;20047;-37
2022/12/19 13:29:30;;;;;;;19.10;13.15;;;7.80;99.90;;;;;;5170445;27;20125;-37
2022/12/19 13:32:11;;;;;;;19.58;13.45;;;7.90;99.90;;;;;;5117829;28;20048;-37
2022/12/19 13:35:01;;;;;;;16.38;13.65;;;7.90;99.90;;;;;;5088867;28;20067;-37
2022/12/19 13:37:39;;;;;;;17.55;13.57;;;7.90;99.90;;;;;;5062732;28;20043;-38
2022/12/19 13:40:14;;;;;;;17.63;12.55;;;7.90;99.90;;;;;;5035335;28;20038;-37
2022/12/19 13:45:41;;;;;;;15.68;12.38;;;8.00;99.90;;;;;;4826510;29;20062;-37
2022/12/19 13:49:34;;;;;;;15.57;12.80;;;8.00;99.90;;;;;;5145005;27;20131;-37
2022/12/19 13:52:00;;;;;;;15.38;12.45;;;8.00;99.90;;;;;;5081458;28;20162;-38
2022/12/19 13:54:27;;;;;;;16.90;12.98;;;8.00;99.90;;;;;;5080091;28;20521;-37